»·PEaware :: N900HE KAVX-KHND

N900HE :: KAVX-KHND

FLIGHT INFORMATION

Flight Status: Arrived
Operator: Privately registered:
United States
More flights under this callsign
Pilot: Heigo T. (17565)
Aircraft: SOCATA TBM-900
(TBM9)
More flights by this aircraft type
Origin: KAVX Catalina
United States
Destination: KHND Henderson
United States
More flights between these airports :: More routes between these airports
Route: +SANTIAGO PEAK KREI KDAG 0O2 0L7
File this flight plan on PilotEdge
Remarks:
Altitude:
(Current/Filed)
15,500ft
Speed:
(Current/Filed)
280kts
Departed: 03-Jan-20 01:47 PM
Arrived: 03-Jan-20 02:49 PM
Distance/Time
Traveled:
224nm/1:02
Distance/Time
To Go:
Arrived

Flight Plot

Page will automatically refresh every two minutes.

Flight plan parsing failed; only flown route is shown


Map Options




Map Legend


Flown Route
Filed Route
Departure Airport
Arrival Airport
Navaid (VOR, NDB)
Fix

Horizontal Profiles

Position Reports

Time Latitude Longitude Heading Altitude Ground
Speed
03-Jan-20 13:27 33.403156 -118.415858 31 1569ft 0kts
03-Jan-20 13:28 33.403156 -118.415858 31 1569ft 0kts
03-Jan-20 13:29 33.403156 -118.415858 31 1569ft 0kts
03-Jan-20 13:30 33.403156 -118.415858 31 1569ft 0kts
03-Jan-20 13:31 33.403156 -118.415858 31 1569ft 0kts
03-Jan-20 13:32 33.403156 -118.415858 31 1569ft 0kts
03-Jan-20 13:33 33.403156 -118.415858 31 1569ft 0kts
03-Jan-20 13:34 33.403156 -118.415858 31 1569ft 0kts
03-Jan-20 13:35 33.403156 -118.415858 31 1569ft 0kts
03-Jan-20 13:36 33.403156 -118.415858 31 1569ft 0kts
03-Jan-20 13:37 33.403156 -118.415858 31 1569ft 0kts
03-Jan-20 13:38 33.403156 -118.415858 31 1569ft 0kts
03-Jan-20 13:39 33.403156 -118.415858 31 1569ft 0kts
03-Jan-20 13:40 33.403156 -118.415858 31 1569ft 0kts
03-Jan-20 13:41 33.403385 -118.415695 31 1569ft 5kts
03-Jan-20 13:42 33.405683 -118.413913 56 1569ft 14kts
03-Jan-20 13:43 33.407069 -118.411569 55 1569ft 0kts
03-Jan-20 13:44 33.407249 -118.411949 235 1569ft 7kts
03-Jan-20 13:45 33.407187 -118.412056 235 1569ft 13kts
03-Jan-20 13:46 33.390748 -118.436455 236 2717ft 115kts
03-Jan-20 13:47 33.389825 -118.470201 342 4265ft 138kts
03-Jan-20 13:48 33.416149 -118.440095 77 5983ft 149kts
03-Jan-20 13:49 33.425164 -118.392692 77 8097ft 148kts
03-Jan-20 13:50 33.433100 -118.344088 77 9997ft 150kts
03-Jan-20 13:51 33.440074 -118.293765 77 11883ft 156kts
03-Jan-20 13:52 33.446310 -118.241452 77 13489ft 172kts
03-Jan-20 13:53 33.455151 -118.170549 77 13493ft 241kts
03-Jan-20 13:54 33.467724 -118.088033 66 13478ft 256kts
03-Jan-20 13:55 33.492254 -118.006606 66 13472ft 260kts
03-Jan-20 13:56 33.517039 -117.924708 66 13444ft 262kts
03-Jan-20 13:57 33.541932 -117.842512 66 13444ft 261kts
03-Jan-20 13:58 33.576553 -117.766740 56 13445ft 259kts
03-Jan-20 13:59 33.612426 -117.691733 56 13444ft 259kts
03-Jan-20 14:01 33.648356 -117.616534 56 13445ft 259kts
03-Jan-20 14:02 33.696637 -117.554235 41 13445ft 255kts
03-Jan-20 14:03 33.746701 -117.493718 41 13471ft 254kts
03-Jan-20 14:04 33.797036 -117.432726 41 13472ft 255kts
03-Jan-20 14:05 33.849020 -117.369681 40 13499ft 254kts
03-Jan-20 14:06 33.909408 -117.324180 31 13496ft 252kts
03-Jan-20 14:07 33.968217 -117.274349 31 13497ft 252kts
03-Jan-20 14:08 34.026371 -117.224981 31 13469ft 253kts
03-Jan-20 14:09 34.083877 -117.176107 31 13626ft 247kts
03-Jan-20 14:10 34.142801 -117.128280 21 13634ft 248kts
03-Jan-20 14:11 34.207917 -117.091561 21 13635ft 249kts
03-Jan-20 14:12 34.272882 -117.054926 21 13635ft 250kts
03-Jan-20 14:13 34.337777 -117.018262 21 13634ft 250kts
03-Jan-20 14:14 34.401800 -116.981998 21 13632ft 250kts
03-Jan-20 14:15 34.466310 -116.945076 21 13635ft 253kts
03-Jan-20 14:16 34.532516 -116.907137 21 13634ft 253kts
03-Jan-20 14:17 34.598210 -116.869428 21 13634ft 253kts
03-Jan-20 14:18 34.663380 -116.832018 21 13525ft 255kts
03-Jan-20 14:19 34.727670 -116.795051 21 13525ft 254kts
03-Jan-20 14:20 34.791773 -116.755155 44 13427ft 262kts
03-Jan-20 14:20 34.817598 -116.684732 61 13472ft 264kts
03-Jan-20 14:22 34.853916 -116.588874 61 13471ft 264kts
03-Jan-20 14:23 34.889451 -116.506407 56 13471ft 263kts
03-Jan-20 14:23 34.920635 -116.439520 56 13471ft 263kts
03-Jan-20 14:25 34.963375 -116.347704 56 13471ft 262kts
03-Jan-20 14:25 34.994467 -116.280830 56 13469ft 262kts
03-Jan-20 14:26 35.032534 -116.199034 56 13280ft 266kts
03-Jan-20 14:28 35.075545 -116.106569 56 13279ft 262kts
03-Jan-20 14:28 35.105849 -116.041284 56 13282ft 262kts
03-Jan-20 14:29 35.142753 -115.961645 56 13282ft 259kts
03-Jan-20 14:30 35.177864 -115.885675 56 13283ft 258kts
03-Jan-20 14:31 35.214332 -115.806610 56 13283ft 257kts
03-Jan-20 14:32 35.249909 -115.729056 56 13526ft 252kts
03-Jan-20 14:33 35.285507 -115.651243 56 13491ft 256kts
03-Jan-20 14:34 35.322197 -115.575046 48 13490ft 254kts
03-Jan-20 14:35 35.366188 -115.503974 48 13490ft 254kts
03-Jan-20 14:36 35.412390 -115.436707 31 13492ft 248kts
03-Jan-20 14:37 35.469678 -115.386297 31 13490ft 248kts
03-Jan-20 14:38 35.526252 -115.336547 31 13487ft 248kts
03-Jan-20 14:39 35.572277 -115.272079 52 13017ft 256kts
03-Jan-20 14:40 35.614238 -115.195056 52 11030ft 275kts
03-Jan-20 14:41 35.665093 -115.132867 24 8978ft 245kts
03-Jan-20 14:42 35.725898 -115.100976 356 6537ft 236kts
03-Jan-20 14:43 35.787444 -115.110556 338 4941ft 211kts
03-Jan-20 14:44 35.840810 -115.136505 338 4240ft 200kts
03-Jan-20 14:45 35.893848 -115.150513 356 3722ft 194kts
03-Jan-20 14:46 35.934061 -115.137281 15 3349ft 104kts
03-Jan-20 14:47 35.958612 -115.135684 358 2608ft 84kts
03-Jan-20 14:48 35.970878 -115.135959 273 2448ft 5kts
03-Jan-20 14:49 35.970882 -115.136052 273 2448ft 0kts
03-Jan-20 14:50 35.970882 -115.136052 273 2448ft 0kts
03-Jan-20 14:51 35.971285 -115.136461 359 2446ft 9kts
03-Jan-20 14:52 35.975070 -115.136365 2 2427ft 11kts
03-Jan-20 14:53 35.977418 -115.136665 275 2415ft 2kts
03-Jan-20 14:54 35.977436 -115.137119 286 2415ft 9kts
03-Jan-20 14:55 35.978195 -115.137768 355 2410ft 0kts
03-Jan-20 14:56 35.978195 -115.137768 355 2410ft 0kts
03-Jan-20 14:57 35.978195 -115.137768 355 2410ft 0kts
03-Jan-20 14:58 35.978195 -115.137768 355 2410ft 0kts
03-Jan-20 14:59 35.978195 -115.137768 355 2410ft 0kts
03-Jan-20 15:00 35.978195 -115.137768 355 2410ft 0kts
03-Jan-20 15:01 35.978195 -115.137768 355 2410ft 0kts
03-Jan-20 15:02 35.978195 -115.137768 355 2410ft 0kts

Navigation Log

Ident Type
Flight plan parsing failed, navigation log unavailable